createdAt,value
2022-08-27T00:00:33.468Z,78.06
2022-08-27T00:03:00.543Z,78.20
2022-08-27T00:05:27.280Z,78.30
2022-08-27T00:07:54.163Z,78.20
2022-08-27T00:10:24.981Z,78.50
2022-08-27T00:12:52.059Z,78.60
2022-08-27T00:15:19.867Z,78.60
2022-08-27T00:17:47.343Z,78.62
2022-08-27T00:20:18.282Z,78.61
2022-08-27T00:22:45.085Z,78.61
2022-08-27T00:25:13.312Z,78.51
2022-08-27T00:27:40.883Z,78.66
2022-08-27T00:30:13.036Z,78.30
2022-08-27T00:32:40.686Z,78.48
2022-08-27T00:35:08.568Z,78.58
2022-08-27T00:37:36.035Z,78.49
2022-08-27T00:40:04.522Z,78.50
2022-08-27T00:42:31.465Z,78.35
2022-08-27T00:44:59.816Z,78.17
2022-08-27T00:47:29.497Z,78.21
2022-08-27T00:50:08.363Z,78.09
2022-08-27T00:52:56.884Z,78.27
2022-08-27T00:55:33.485Z,78.10
2022-08-27T00:58:07.605Z,78.10
2022-08-27T01:00:34.602Z,78.25
2022-08-27T01:03:02.071Z,78.13
2022-08-27T01:05:29.051Z,78.17
2022-08-27T01:08:02.054Z,78.32
2022-08-27T01:10:30.502Z,78.23
2022-08-27T01:12:57.922Z,77.90
2022-08-27T01:15:28.234Z,78.10
2022-08-27T01:17:55.943Z,77.74
2022-08-27T01:20:27.233Z,77.92
2022-08-27T01:23:12.544Z,77.95
2022-08-27T01:25:45.159Z,77.92
2022-08-27T01:28:13.823Z,78.04
2022-08-27T01:30:41.406Z,78.20
2022-08-27T01:33:17.589Z,78.03
2022-08-27T01:35:47.317Z,78.12
2022-08-27T01:38:18.886Z,78.17
2022-08-27T01:41:19.124Z,78.22
2022-08-27T01:44:07.061Z,78.22
2022-08-27T01:46:54.203Z,78.27
2022-08-27T01:49:41.595Z,77.94
2022-08-27T01:52:31.608Z,78.02
2022-08-27T01:55:21.825Z,77.89
2022-08-27T01:58:09.029Z,78.17
2022-08-27T02:01:05.629Z,78.14
2022-08-27T02:03:52.745Z,78.20
2022-08-27T02:06:40.106Z,78.45
2022-08-27T02:09:27.193Z,78.48
2022-08-27T02:12:14.293Z,78.63
2022-08-27T02:15:01.838Z,78.54
2022-08-27T02:17:48.929Z,78.13
2022-08-27T02:20:36.809Z,78.12
2022-08-27T02:23:23.916Z,78.31
2022-08-27T02:26:11.085Z,78.42
2022-08-27T02:28:58.121Z,78.42
2022-08-27T02:31:45.223Z,78.64
2022-08-27T02:34:32.289Z,78.63
2022-08-27T02:37:19.372Z,78.60
2022-08-27T02:40:08.691Z,78.26
2022-08-27T02:42:55.812Z,78.25
2022-08-27T02:45:42.944Z,78.03
2022-08-27T02:48:30.336Z,78.20
2022-08-27T02:51:17.375Z,78.17
2022-08-27T02:54:06.830Z,77.82
2022-08-27T02:56:56.813Z,77.98
2022-08-27T02:59:43.856Z,78.31
2022-08-27T07:48:16.526Z,74.53
2022-08-27T07:55:04.861Z,74.16
2022-08-27T07:57:52.744Z,74.16
2022-08-27T08:04:50.491Z,74.38
2022-08-27T08:07:45.751Z,74.43
2022-08-27T08:30:18.866Z,79.32
2022-08-27T08:32:45.665Z,80.85
2022-08-27T08:35:12.720Z,81.10
2022-08-27T08:37:39.570Z,80.68
2022-08-27T08:40:07.028Z,79.01
2022-08-27T08:42:57.196Z,75.84
2022-08-27T08:45:46.022Z,72.10
2022-08-27T08:48:34.979Z,67.59
2022-08-27T08:51:41.021Z,63.55
2022-08-27T08:54:32.508Z,59.67
2022-08-27T08:57:02.282Z,57.04
2022-08-27T08:59:38.185Z,54.43
2022-08-27T09:02:13.591Z,52.62
2022-08-27T09:04:42.501Z,50.74
2022-08-27T09:07:19.323Z,49.28
2022-08-27T09:10:10.435Z,48.37
2022-08-27T09:12:37.178Z,47.30
2022-08-27T09:15:20.333Z,46.00
2022-08-27T09:18:13.989Z,44.16
2022-08-27T09:21:27.547Z,44.89
2022-08-27T09:24:18.487Z,43.81
2022-08-27T09:27:06.266Z,43.18
2022-08-27T09:29:56.112Z,41.47
2022-08-27T09:32:43.114Z,40.44
2022-08-27T09:35:45.675Z,41.53
2022-08-27T09:42:43.272Z,45.10
2022-08-27T09:50:31.679Z,42.71
2022-08-27T09:53:25.861Z,41.77
2022-08-27T09:59:57.062Z,39.84
2022-08-27T10:11:21.146Z,39.62
2022-08-27T10:21:39.512Z,39.75
2022-08-27T10:24:24.689Z,40.09
2022-08-27T10:31:26.487Z,41.41
2022-08-27T10:34:22.359Z,40.35
2022-08-27T10:37:07.305Z,39.59
2022-08-27T10:44:03.956Z,43.17
2022-08-27T10:51:44.675Z,44.73
2022-08-27T10:54:48.586Z,46.72
2022-08-27T10:58:00.132Z,47.27
2022-08-27T11:00:34.424Z,46.82
2022-08-27T11:03:15.573Z,46.83
2022-08-27T11:05:47.504Z,47.13
2022-08-27T11:08:22.006Z,47.66
2022-08-27T11:10:58.267Z,47.42
2022-08-27T11:13:28.195Z,47.54
2022-08-27T11:15:56.737Z,47.54
2022-08-27T11:18:52.936Z,48.01
2022-08-27T11:21:39.859Z,48.42
2022-08-27T11:24:43.912Z,48.59
2022-08-27T11:27:12.239Z,48.88
2022-08-27T11:30:30.491Z,49.34
2022-08-27T11:33:13.889Z,49.74
2022-08-27T11:35:50.224Z,50.05
2022-08-27T11:38:50.061Z,50.16
2022-08-27T11:41:23.428Z,50.80
2022-08-27T11:43:52.860Z,51.13
2022-08-27T11:46:28.930Z,51.00
2022-08-27T11:49:01.943Z,51.36
2022-08-27T11:51:40.474Z,51.63
2022-08-27T11:54:10.849Z,51.11
2022-08-27T11:56:43.483Z,51.21
2022-08-27T11:59:30.479Z,51.48
2022-08-27T12:02:10.181Z,51.60
2022-08-27T12:04:40.516Z,51.48
2022-08-27T12:07:22.371Z,50.87
2022-08-27T12:10:07.155Z,51.55
2022-08-27T12:12:53.962Z,51.21
2022-08-27T12:15:33.084Z,50.88
2022-08-27T12:18:39.382Z,50.57
2022-08-27T12:21:29.344Z,50.77
2022-08-27T12:24:25.955Z,50.10
2022-08-27T12:27:13.147Z,49.94
2022-08-27T12:29:50.000Z,49.53
2022-08-27T12:37:07.360Z,49.39
2022-08-27T12:39:39.231Z,49.46
2022-08-27T12:42:12.519Z,49.68
2022-08-27T12:44:39.680Z,49.59
2022-08-27T12:47:13.459Z,50.06
2022-08-27T12:49:55.945Z,49.03
2022-08-27T12:53:04.170Z,48.85
2022-08-27T12:56:26.340Z,48.76
2022-08-27T12:59:55.155Z,48.77
2022-08-27T13:03:14.768Z,49.00
2022-08-27T13:06:01.925Z,48.90
2022-08-27T13:08:54.492Z,48.49
2022-08-27T13:11:55.738Z,48.23
2022-08-27T13:14:42.810Z,48.26
2022-08-27T13:17:36.507Z,48.27
2022-08-27T13:20:25.544Z,48.52
2022-08-27T13:23:25.063Z,48.21
2022-08-27T13:25:54.223Z,48.45
2022-08-27T13:28:25.224Z,47.82
2022-08-27T13:30:52.838Z,47.41
2022-08-27T13:33:29.658Z,47.35
2022-08-27T13:36:00.922Z,47.27
2022-08-27T13:38:30.725Z,47.52
2022-08-27T13:41:06.998Z,47.11
2022-08-27T13:43:39.217Z,47.34
2022-08-27T13:46:12.021Z,47.42
2022-08-27T13:48:44.444Z,47.15
2022-08-27T13:51:13.062Z,46.62
2022-08-27T13:54:05.545Z,46.80
2022-08-27T13:56:35.856Z,46.68
2022-08-27T13:59:13.092Z,46.44
2022-08-27T14:01:54.529Z,46.07
2022-08-27T14:04:26.350Z,46.28
2022-08-27T14:06:54.640Z,46.48
2022-08-27T14:09:29.384Z,46.87
2022-08-27T14:12:08.434Z,46.42
2022-08-27T14:14:41.361Z,46.65
2022-08-27T14:17:29.504Z,46.58
2022-08-27T14:20:01.792Z,47.11
2022-08-27T14:22:28.810Z,47.35
2022-08-27T14:24:55.534Z,46.97
2022-08-27T14:27:22.383Z,47.19
2022-08-27T14:29:49.831Z,47.62
2022-08-27T14:32:19.192Z,47.94
2022-08-27T14:38:40.844Z,48.71
2022-08-27T14:41:08.388Z,48.47
2022-08-27T14:43:35.974Z,48.64
2022-08-27T14:46:04.660Z,47.85
2022-08-27T14:48:33.980Z,48.19
2022-08-27T14:51:09.547Z,48.27
2022-08-27T14:53:36.324Z,48.08
2022-08-27T14:56:03.418Z,47.74
2022-08-27T14:58:30.191Z,47.45
2022-08-27T15:00:57.894Z,46.85
2022-08-27T15:03:31.747Z,46.84
2022-08-27T15:06:01.557Z,46.81
2022-08-27T15:08:29.373Z,46.90
2022-08-27T15:10:59.211Z,46.74
2022-08-27T15:13:26.182Z,46.25
2022-08-27T15:15:53.107Z,46.27
2022-08-27T15:18:22.740Z,46.14
2022-08-27T15:20:49.868Z,45.66
2022-08-27T15:23:17.009Z,45.53
2022-08-27T15:25:45.891Z,45.92
2022-08-27T15:28:12.925Z,45.51
2022-08-27T15:30:39.915Z,45.52
2022-08-27T15:33:07.027Z,45.48
2022-08-27T15:35:34.543Z,46.16
2022-08-27T15:38:01.956Z,45.90
2022-08-27T15:44:25.517Z,44.37
2022-08-27T15:54:37.055Z,44.43
2022-08-27T16:12:27.207Z,43.31
2022-08-27T16:14:55.450Z,42.90
2022-08-27T16:24:53.583Z,43.54
2022-08-27T16:27:20.574Z,43.38
2022-08-27T16:29:47.309Z,43.21
2022-08-27T16:35:55.112Z,43.74
2022-08-27T16:39:19.629Z,43.90
2022-08-27T16:41:50.238Z,44.04
2022-08-27T16:44:17.750Z,43.91
2022-08-27T16:46:44.822Z,43.80
2022-08-27T16:49:30.907Z,43.76
2022-08-27T16:51:57.750Z,44.04
2022-08-27T16:54:24.510Z,44.00
2022-08-27T16:56:51.349Z,44.58
2022-08-27T16:59:18.119Z,44.52
2022-08-27T17:01:49.532Z,44.47
2022-08-27T17:04:27.667Z,43.97
2022-08-27T17:06:56.728Z,44.02
2022-08-27T17:09:25.134Z,43.58
2022-08-27T17:11:57.106Z,43.94
2022-08-27T17:14:24.370Z,44.03
2022-08-27T17:16:54.080Z,44.29
2022-08-27T17:19:22.462Z,45.01
2022-08-27T17:21:50.246Z,44.86
2022-08-27T17:24:17.810Z,44.83
2022-08-27T17:26:45.044Z,44.93
2022-08-27T17:29:12.285Z,45.01
2022-08-27T17:31:41.754Z,44.56
2022-08-27T17:34:15.891Z,44.95
2022-08-27T17:36:44.212Z,45.42
2022-08-27T17:39:11.841Z,45.46
2022-08-27T17:41:44.070Z,45.12
2022-08-27T17:44:23.372Z,45.57
2022-08-27T17:46:56.972Z,45.58
2022-08-27T17:57:17.754Z,46.88
2022-08-27T17:59:45.325Z,47.35
2022-08-27T18:06:22.425Z,47.68
2022-08-27T18:08:49.236Z,47.99
2022-08-27T18:11:57.575Z,47.70
2022-08-27T18:14:24.496Z,47.32
2022-08-27T18:20:42.617Z,47.15
2022-08-27T18:27:35.643Z,47.61
2022-08-27T18:30:05.023Z,48.17
2022-08-27T18:32:31.923Z,48.29
2022-08-27T18:35:03.255Z,47.99
2022-08-27T18:45:05.689Z,49.13
2022-08-27T18:47:32.867Z,49.23
2022-08-27T18:49:59.639Z,49.36
2022-08-27T18:52:26.647Z,49.98
2022-08-27T18:54:53.688Z,50.26
2022-08-27T18:57:20.604Z,50.86
2022-08-27T18:59:47.455Z,50.70
2022-08-27T19:02:18.635Z,51.20
2022-08-27T19:04:46.044Z,50.90
2022-08-27T19:11:04.123Z,51.45
2022-08-27T19:13:31.329Z,51.65
2022-08-27T19:16:19.230Z,52.01
2022-08-27T19:18:46.916Z,52.36
2022-08-27T19:25:29.414Z,53.13
2022-08-27T19:27:56.742Z,53.41
2022-08-27T19:30:23.733Z,53.32
2022-08-27T19:32:54.880Z,52.95
2022-08-27T19:35:22.140Z,53.08
2022-08-27T19:37:53.047Z,53.14
2022-08-27T19:40:22.381Z,53.17
2022-08-27T19:50:32.448Z,54.51
2022-08-27T19:53:05.448Z,55.21
2022-08-27T19:55:32.703Z,55.33
2022-08-27T19:58:31.604Z,56.16
2022-08-27T20:00:58.410Z,56.39
2022-08-27T20:07:49.119Z,56.75
2022-08-27T20:10:16.946Z,56.74
2022-08-27T20:12:45.589Z,57.23
2022-08-27T20:15:13.620Z,57.50
2022-08-27T20:17:40.618Z,57.59
2022-08-27T20:20:08.482Z,57.83
2022-08-27T20:22:35.299Z,58.13
2022-08-27T20:25:02.322Z,58.46
2022-08-27T20:27:29.071Z,58.58
2022-08-27T20:29:56.068Z,58.51
2022-08-27T20:36:04.155Z,58.83
2022-08-27T20:38:31.078Z,58.97
2022-08-27T20:41:01.097Z,59.02
2022-08-27T20:47:20.108Z,58.95
2022-08-27T20:49:46.907Z,59.39
2022-08-27T20:52:13.774Z,59.43
2022-08-27T20:54:41.054Z,59.55
2022-08-27T21:00:59.641Z,59.52
2022-08-27T21:03:26.615Z,59.95
2022-08-27T21:05:53.470Z,60.17
2022-08-27T21:08:21.091Z,60.35
2022-08-27T21:10:55.107Z,60.13
2022-08-27T21:13:22.185Z,60.28
2022-08-27T21:15:50.223Z,60.57
2022-08-27T21:18:29.692Z,60.31
2022-08-27T21:25:18.319Z,60.34
2022-08-27T21:28:07.505Z,60.36
2022-08-27T21:30:54.612Z,60.46
2022-08-27T21:33:41.679Z,60.56
2022-08-27T21:36:28.990Z,60.44
2022-08-27T21:39:06.082Z,60.73
2022-08-27T21:41:37.141Z,60.92
2022-08-27T21:44:04.905Z,60.83
2022-08-27T21:46:33.278Z,60.69
2022-08-27T21:49:00.156Z,60.71
2022-08-27T21:51:27.051Z,61.01
2022-08-27T21:53:54.035Z,61.11
2022-08-27T21:56:21.032Z,61.05
2022-08-27T21:58:47.830Z,61.21
2022-08-27T22:01:15.264Z,61.41
2022-08-27T22:03:46.880Z,61.33
2022-08-27T22:06:15.043Z,61.37
2022-08-27T22:08:43.690Z,61.41
2022-08-27T22:11:11.745Z,61.64
2022-08-27T22:13:39.397Z,61.63
2022-08-27T22:19:56.898Z,61.53
2022-08-27T22:22:23.661Z,61.91
2022-08-27T22:24:57.367Z,62.11
2022-08-27T22:27:24.124Z,62.03
2022-08-27T22:37:32.040Z,61.96
2022-08-27T22:39:58.809Z,62.09
2022-08-27T22:42:26.291Z,62.41
2022-08-27T22:44:53.732Z,62.64
2022-08-27T22:47:20.541Z,62.75
2022-08-27T22:50:08.627Z,63.02
2022-08-27T22:52:55.867Z,63.18
2022-08-27T22:55:46.774Z,63.43
2022-08-27T22:58:36.565Z,63.80
2022-08-27T23:01:23.667Z,63.90
2022-08-27T23:04:11.328Z,64.24
2022-08-27T23:07:01.936Z,64.36
2022-08-27T23:10:19.029Z,64.60
2022-08-27T23:12:46.804Z,64.62
2022-08-27T23:19:37.912Z,65.22
2022-08-27T23:26:35.628Z,65.61
2022-08-27T23:29:02.412Z,65.82
2022-08-27T23:31:29.268Z,66.02
2022-08-27T23:33:57.308Z,66.23
2022-08-27T23:36:24.123Z,66.31
2022-08-27T23:38:51.344Z,66.53
2022-08-27T23:41:18.085Z,66.53
2022-08-27T23:43:45.656Z,66.58
2022-08-27T23:46:13.131Z,66.55
2022-08-27T23:48:40.249Z,66.40
2022-08-27T23:51:08.050Z,66.32
2022-08-27T23:53:38.068Z,66.30
2022-08-27T23:56:05.527Z,66.39
2022-08-27T23:58:32.834Z,66.37
